^^
Grace C. Lehan Memorial Weather Station Historical Data
Daily Summary for May 27, 2022 Units:  Both    English   Metric
Daily Weekly Monthly Yearly
  High: Low: Average:
Temperature: 79.3 °F /  26.3 °C 63.5 °F /  17.5 °C 69.4 °F /  20.8 °C
Dew Point: 69.8 °F /  21 °C 58.8 °F /  14.9 °C 64.8 °F /  18.2 °C
Humidity: 95% 70.7% 86%
Wind Speed: 2.7mph /  4.3km/h - 0.5mph /  0.8km/h
Wind Gust: 11mph /  17.7km/h - -
Wind- - SSW
Pressure: 30.07 in /  1018.2 hPa 29.74 in /  1007 hPa -
Precipitation: 0.00 in /  0 mm    
 
 
Tabular Data for May 27, 2022
Time Temperature Dew Point Pressure Wind Wind Speed Wind Gust Humidity Rainfall Rate (Hourly) solar
00:00 64.3 °F /  17.9 °C 59 °F /  15 °C 30.07in /  1018.2hPa Calm   2mph /  3.2km/h 83% 0.00in /  0mm 0 W/m2
00:09 64.3 °F /  17.9 °C 59 °F /  15 °C 30.07in /  1018.2hPa Calm     83% 0.00in /  0mm 0 W/m2
00:14 64.3 °F /  17.9 °C 59 °F /  15 °C 30.06in /  1017.8hPa Calm     83% 0.00in /  0mm 0 W/m2
00:19 64.3 °F /  17.9 °C 59 °F /  15 °C 30.06in /  1017.8hPa Calm     83% 0.00in /  0mm 0 W/m2
00:24 64.3 °F /  17.9 °C 59 °F /  15 °C 30.06in /  1017.8hPa Calm     83% 0.00in /  0mm 0 W/m2
00:29 64.3 °F /  17.9 °C 59 °F /  15 °C 30.06in /  1017.8hPa Calm     83% 0.00in /  0mm 0 W/m2
00:34 64.3 °F /  17.9 °C 59 °F /  15 °C 30.06in /  1017.8hPa Calm     83% 0.00in /  0mm 0 W/m2
00:39 64.2 °F /  17.9 °C 58.9 °F /  14.9 °C 30.05in /  1017.5hPa Calm     83% 0.00in /  0mm 0 W/m2
00:44 64.2 °F /  17.9 °C 58.9 °F /  14.9 °C 30.05in /  1017.5hPa Calm     83% 0.00in /  0mm 0 W/m2
00:49 64.2 °F /  17.9 °C 58.9 °F /  14.9 °C 30.04in /  1017.2hPa Calm     83% 0.00in /  0mm 0 W/m2
00:53 64.1 °F /  17.8 °C 58.8 °F /  14.9 °C 30.04in /  1017.2hPa Calm     83% 0.00in /  0mm 0 W/m2
00:59 64.1 °F /  17.8 °C 58.9 °F /  14.9 °C 30.05in /  1017.5hPa Calm     83.3% 0.00in /  0mm 0 W/m2
01:04 64.1 °F /  17.8 °C 59.1 °F /  15.1 °C 30.05in /  1017.5hPa Calm     84% 0.00in /  0mm 0 W/m2
01:09 64 °F /  17.8 °C 59.1 °F /  15.1 °C 30.04in /  1017.2hPa Calm     84% 0.00in /  0mm 0 W/m2
01:14 63.9 °F /  17.7 °C 59 °F /  15 °C 30.04in /  1017.2hPa Calm     84% 0.00in /  0mm 0 W/m2
01:19 63.8 °F /  17.7 °C 58.9 °F /  14.9 °C 30.03in /  1016.8hPa SSW 0.1mph /  0.2km/h 3mph /  4.8km/h 84% 0.00in /  0mm 0 W/m2
01:24 63.8 °F /  17.7 °C 58.9 °F /  14.9 °C 30.03in /  1016.8hPa SSW 0.1mph /  0.2km/h 3mph /  4.8km/h 84% 0.00in /  0mm 0 W/m2
01:29 63.7 °F /  17.6 °C 59 °F /  15 °C 30.03in /  1016.8hPa SSW 0.1mph /  0.2km/h 3mph /  4.8km/h 84.7% 0.00in /  0mm 0 W/m2
01:34 63.7 °F /  17.6 °C 59 °F /  15 °C 30.03in /  1016.8hPa Calm   3mph /  4.8km/h 84.6% 0.00in /  0mm 0 W/m2
01:39 63.6 °F /  17.6 °C 59 °F /  15 °C 30.02in /  1016.5hPa Calm     85% 0.00in /  0mm 0 W/m2
01:44 63.6 °F /  17.6 °C 59 °F /  15 °C 30.02in /  1016.5hPa SSW 0.3mph /  0.5km/h 3mph /  4.8km/h 85% 0.00in /  0mm 0 W/m2
01:49 63.6 °F /  17.6 °C 59 °F /  15 °C 30.02in /  1016.5hPa Calm   3mph /  4.8km/h 85% 0.00in /  0mm 0 W/m2
01:54 63.6 °F /  17.6 °C 59 °F /  15 °C 30.02in /  1016.5hPa Calm   3mph /  4.8km/h 85% 0.00in /  0mm 0 W/m2
01:59 63.6 °F /  17.6 °C 59 °F /  15 °C 30.02in /  1016.5hPa SSW 0.1mph /  0.2km/h 3mph /  4.8km/h 85.2% 0.00in /  0mm 0 W/m2
02:04 63.5 °F /  17.5 °C 59.3 °F /  15.2 °C 30.02in /  1016.5hPa SSW 0.1mph /  0.2km/h 3mph /  4.8km/h 86% 0.00in /  0mm 0 W/m2
02:09 63.5 °F /  17.5 °C 59.3 °F /  15.2 °C 30.01in /  1016.1hPa Calm   1mph /  1.6km/h 86% 0.00in /  0mm 0 W/m2
02:14 63.6 °F /  17.6 °C 59.3 °F /  15.2 °C 30.01in /  1016.1hPa Calm   1mph /  1.6km/h 86% 0.00in /  0mm 0 W/m2
02:19 63.6 °F /  17.6 °C 59.3 °F /  15.2 °C 30.01in /  1016.1hPa Calm   2mph /  3.2km/h 86% 0.00in /  0mm 0 W/m2
02:24 63.6 °F /  17.6 °C 59.4 °F /  15.2 °C 30.01in /  1016.1hPa Calm   2mph /  3.2km/h 86% 0.00in /  0mm 0 W/m2
02:29 63.7 °F /  17.6 °C 59.4 °F /  15.2 °C 30.01in /  1016.1hPa Calm   2mph /  3.2km/h 86% 0.00in /  0mm 0 W/m2
02:34 63.7 °F /  17.6 °C 59.4 °F /  15.2 °C 30.01in /  1016.1hPa Calm   2mph /  3.2km/h 86% 0.00in /  0mm 0 W/m2
02:39 63.7 °F /  17.6 °C 59.4 °F /  15.2 °C 30.01in /  1016.1hPa Calm     86% 0.00in /  0mm 0 W/m2
02:44 63.7 °F /  17.6 °C 59.4 °F /  15.2 °C 30.00in /  1015.8hPa Calm   1mph /  1.6km/h 86% 0.00in /  0mm 0 W/m2
02:49 63.7 °F /  17.6 °C 59.5 °F /  15.3 °C 30.00in /  1015.8hPa Calm   1mph /  1.6km/h 86% 0.00in /  0mm 0 W/m2
02:54 63.8 °F /  17.7 °C 59.8 °F /  15.4 °C 30.00in /  1015.8hPa Calm   1mph /  1.6km/h 86.9% 0.00in /  0mm 0 W/m2
02:59 63.8 °F /  17.7 °C 59.9 °F /  15.5 °C 30.00in /  1015.8hPa Calm   1mph /  1.6km/h 87% 0.00in /  0mm 0 W/m2
03:04 63.8 °F /  17.7 °C 59.9 °F /  15.5 °C 30.00in /  1015.8hPa Calm   1mph /  1.6km/h 87% 0.00in /  0mm 0 W/m2
03:09 63.9 °F /  17.7 °C 60.1 °F /  15.6 °C 29.99in /  1015.5hPa Calm   1mph /  1.6km/h 87.5% 0.00in /  0mm 0 W/m2
03:14 64 °F /  17.8 °C 60.4 °F /  15.8 °C 29.99in /  1015.5hPa Calm   1mph /  1.6km/h 88% 0.00in /  0mm 0 W/m2
03:19 64 °F /  17.8 °C 60.4 °F /  15.8 °C 29.99in /  1015.5hPa Calm   1mph /  1.6km/h 88% 0.00in /  0mm 0 W/m2
03:24 63.9 °F /  17.7 °C 60.3 °F /  15.7 °C 29.99in /  1015.5hPa Calm   1mph /  1.6km/h 88% 0.00in /  0mm 0 W/m2
03:29 63.9 °F /  17.7 °C 60.3 °F /  15.7 °C 29.99in /  1015.5hPa Calm   1mph /  1.6km/h 88% 0.00in /  0mm 0 W/m2
03:34 64 °F /  17.8 °C 60.6 °F /  15.9 °C 29.98in /  1015.1hPa Calm   1mph /  1.6km/h 88.6% 0.00in /  0mm 0 W/m2
03:39 64 °F /  17.8 °C 60.7 °F /  15.9 °C 29.98in /  1015.1hPa SSW 0.1mph /  0.2km/h 4mph /  6.4km/h 89% 0.00in /  0mm 0 W/m2
03:44 64 °F /  17.8 °C 60.7 °F /  15.9 °C 29.98in /  1015.1hPa Calm   4mph /  6.4km/h 89% 0.00in /  0mm 0 W/m2
03:49 64 °F /  17.8 °C 60.7 °F /  15.9 °C 29.98in /  1015.1hPa Calm   4mph /  6.4km/h 89% 0.00in /  0mm 0 W/m2
03:54 64 °F /  17.8 °C 60.8 °F /  16 °C 29.98in /  1015.1hPa Calm   4mph /  6.4km/h 89.3% 0.00in /  0mm 0 W/m2
03:59 64 °F /  17.8 °C 61 °F /  16.1 °C 29.98in /  1015.1hPa Calm   4mph /  6.4km/h 90% 0.00in /  0mm 0 W/m2
04:00 64 °F /  17.8 °C 61 °F /  16.1 °C 29.98in /  1015.1hPa Calm   4mph /  6.4km/h 90% 0.00in /  0mm 0 W/m2
04:09 64 °F /  17.8 °C 61 °F /  16.1 °C 29.98in /  1015.1hPa Calm     90% 0.00in /  0mm 0 W/m2
04:14 64 °F /  17.8 °C 61 °F /  16.1 °C 29.97in /  1014.8hPa SSW 0.2mph /  0.3km/h 2mph /  3.2km/h 90% 0.00in /  0mm 0 W/m2
04:19 63.9 °F /  17.7 °C 60.9 °F /  16.1 °C 29.97in /  1014.8hPa Calm   2mph /  3.2km/h 90% 0.00in /  0mm 0 W/m2
04:24 63.9 °F /  17.7 °C 61.1 °F /  16.2 °C 29.97in /  1014.8hPa SSW 0.2mph /  0.3km/h 3mph /  4.8km/h 90.7% 0.00in /  0mm 0 W/m2
04:29 63.9 °F /  17.7 °C 61.2 °F /  16.2 °C 29.97in /  1014.8hPa Calm   3mph /  4.8km/h 91% 0.00in /  0mm 0 W/m2
04:34 63.8 °F /  17.7 °C 61.1 °F /  16.2 °C 29.97in /  1014.8hPa Calm   3mph /  4.8km/h 91% 0.00in /  0mm 0 W/m2
04:39 63.8 °F /  17.7 °C 61.4 °F /  16.3 °C 29.97in /  1014.8hPa Calm   1mph /  1.6km/h 91.9% 0.00in /  0mm 0 W/m2
04:44 63.8 °F /  17.7 °C 61.4 °F /  16.3 °C 29.97in /  1014.8hPa Calm   1mph /  1.6km/h 92% 0.00in /  0mm 0 W/m2
04:49 63.8 °F /  17.7 °C 61.4 °F /  16.3 °C 29.96in /  1014.4hPa SSW 0.3mph /  0.5km/h 4mph /  6.4km/h 92% 0.00in /  0mm 0 W/m2
04:54 63.7 °F /  17.6 °C 61.4 °F /  16.3 °C 29.96in /  1014.4hPa SSW 0.2mph /  0.3km/h 4mph /  6.4km/h 92.2% 0.00in /  0mm 0 W/m2
04:59 63.7 °F /  17.6 °C 61.4 °F /  16.3 °C 29.96in /  1014.4hPa SSW 0.1mph /  0.2km/h 4mph /  6.4km/h 92.3% 0.00in /  0mm 0 W/m2
05:04 63.7 °F /  17.6 °C 61.6 °F /  16.4 °C 29.96in /  1014.4hPa Calm   4mph /  6.4km/h 93% 0.00in /  0mm 0 W/m2
05:09 63.6 °F /  17.6 °C 61.6 °F /  16.4 °C 29.96in /  1014.4hPa Calm     93% 0.00in /  0mm 0 W/m2
05:14 63.7 °F /  17.6 °C 61.6 °F /  16.4 °C 29.96in /  1014.4hPa Calm     93% 0.00in /  0mm 0 W/m2
05:19 63.7 °F /  17.6 °C 61.6 °F /  16.4 °C 29.96in /  1014.4hPa Calm     93% 0.00in /  0mm 0 W/m2
05:24 63.7 °F /  17.6 °C 61.6 °F /  16.4 °C 29.96in /  1014.4hPa Calm     93% 0.00in /  0mm 0 W/m2
05:29 63.8 °F /  17.7 °C 61.7 °F /  16.5 °C 29.96in /  1014.4hPa Calm     93% 0.00in /  0mm 0 W/m2
05:34 63.8 °F /  17.7 °C 61.8 °F /  16.6 °C 29.96in /  1014.4hPa Calm     93.1% 0.00in /  0mm 0 W/m2
05:39 63.9 °F /  17.7 °C 62.1 °F /  16.7 °C 29.96in /  1014.4hPa Calm     94% 0.00in /  0mm 0 W/m2
05:44 63.9 °F /  17.7 °C 62.1 °F /  16.7 °C 29.96in /  1014.4hPa Calm     94% 0.00in /  0mm 0 W/m2
05:49 64 °F /  17.8 °C 62.2 °F /  16.8 °C 29.96in /  1014.4hPa Calm     94% 0.00in /  0mm 5 W/m2
05:54 64 °F /  17.8 °C 62.2 °F /  16.8 °C 29.96in /  1014.4hPa Calm     94% 0.00in /  0mm 7 W/m2
05:59 64.1 °F /  17.8 °C 62.3 °F /  16.8 °C 29.96in /  1014.4hPa Calm     94% 0.00in /  0mm 9 W/m2
06:04 64.1 °F /  17.8 °C 62.3 °F /  16.8 °C 29.96in /  1014.4hPa Calm     94% 0.00in /  0mm 14 W/m2
06:09 64.1 °F /  17.8 °C 62.3 °F /  16.8 °C 29.96in /  1014.4hPa Calm     94% 0.00in /  0mm 19 W/m2
06:14 64.2 °F /  17.9 °C 62.4 °F /  16.9 °C 29.96in /  1014.4hPa Calm     94% 0.00in /  0mm 26 W/m2
06:19 64.2 °F /  17.9 °C 62.5 °F /  16.9 °C 29.96in /  1014.4hPa Calm     94% 0.00in /  0mm 37 W/m2
06:24 64.3 °F /  17.9 °C 62.5 °F /  16.9 °C 29.95in /  1014.1hPa Calm     94% 0.00in /  0mm 42 W/m2
06:29 64.4 °F /  18 °C 62.6 °F /  17 °C 29.96in /  1014.4hPa Calm     94% 0.00in /  0mm 37 W/m2
06:34 64.4 °F /  18 °C 62.7 °F /  17.1 °C 29.96in /  1014.4hPa Calm     94% 0.00in /  0mm 28 W/m2
06:39 64.5 °F /  18.1 °C 62.7 °F /  17.1 °C 29.96in /  1014.4hPa SSW 0.1mph /  0.2km/h 2mph /  3.2km/h 94% 0.00in /  0mm 58 W/m2
06:44 64.6 °F /  18.1 °C 62.9 °F /  17.2 °C 29.96in /  1014.4hPa Calm   2mph /  3.2km/h 94.1% 0.00in /  0mm 56 W/m2
06:49 64.7 °F /  18.2 °C 63.3 °F /  17.4 °C 29.96in /  1014.4hPa Calm   2mph /  3.2km/h 95% 0.00in /  0mm 40 W/m2
06:54 64.8 °F /  18.2 °C 63.4 °F /  17.4 °C 29.96in /  1014.4hPa Calm   2mph /  3.2km/h 95% 0.00in /  0mm 49 W/m2
06:59 64.9 °F /  18.3 °C 63.5 °F /  17.5 °C 29.96in /  1014.4hPa SSW 0.1mph /  0.2km/h 2mph /  3.2km/h 95% 0.00in /  0mm 53 W/m2
07:04 65 °F /  18.3 °C 63.6 °F /  17.6 °C 29.96in /  1014.4hPa Calm   2mph /  3.2km/h 95% 0.00in /  0mm 65 W/m2
07:09 65.2 °F /  18.4 °C 63.7 °F /  17.6 °C 29.95in /  1014.1hPa Calm     95% 0.00in /  0mm 81 W/m2
07:14 65.3 °F /  18.5 °C 63.9 °F /  17.7 °C 29.95in /  1014.1hPa SSW 0.1mph /  0.2km/h 2mph /  3.2km/h 95% 0.00in /  0mm 74 W/m2
07:19 65.5 °F /  18.6 °C 64 °F /  17.8 °C 29.95in /  1014.1hPa Calm   2mph /  3.2km/h 95% 0.00in /  0mm 67 W/m2
07:24 65.6 °F /  18.7 °C 64.1 °F /  17.8 °C 29.95in /  1014.1hPa Calm   2mph /  3.2km/h 95% 0.00in /  0mm 70 W/m2
07:29 65.7 °F /  18.7 °C 64.2 °F /  17.9 °C 29.95in /  1014.1hPa Calm   2mph /  3.2km/h 95% 0.00in /  0mm 67 W/m2
07:34 65.7 °F /  18.7 °C 64.3 °F /  17.9 °C 29.95in /  1014.1hPa Calm   2mph /  3.2km/h 95% 0.00in /  0mm 69 W/m2
07:39 65.8 °F /  18.8 °C 64.3 °F /  17.9 °C 29.95in /  1014.1hPa Calm     95% 0.00in /  0mm 67 W/m2
07:44 65.9 °F /  18.8 °C 64.4 °F /  18 °C 29.94in /  1013.8hPa Calm     95% 0.00in /  0mm 77 W/m2
07:49 65.9 °F /  18.8 °C 64.4 °F /  18 °C 29.94in /  1013.8hPa Calm     95% 0.00in /  0mm 81 W/m2
07:54 66 °F /  18.9 °C 64.5 °F /  18.1 °C 29.94in /  1013.8hPa Calm     95% 0.00in /  0mm 76 W/m2
07:59 66.1 °F /  18.9 °C 64.6 °F /  18.1 °C 29.94in /  1013.8hPa Calm     95% 0.00in /  0mm 76 W/m2
08:00 66.1 °F /  18.9 °C 64.6 °F /  18.1 °C 29.94in /  1013.8hPa Calm     95% 0.00in /  0mm 76 W/m2
08:09 66.2 °F /  19 °C 64.7 °F /  18.2 °C 29.94in /  1013.8hPa Calm     95% 0.00in /  0mm 72 W/m2
08:14 66.3 °F /  19.1 °C 64.8 °F /  18.2 °C 29.94in /  1013.8hPa Calm     95% 0.00in /  0mm 97 W/m2
08:19 66.4 °F /  19.1 °C 64.9 °F /  18.3 °C 29.94in /  1013.8hPa Calm     95% 0.00in /  0mm 100 W/m2
08:24 66.5 °F /  19.2 °C 65 °F /  18.3 °C 29.94in /  1013.8hPa Calm     95% 0.00in /  0mm 77 W/m2
08:29 66.6 °F /  19.2 °C 65.2 °F /  18.4 °C 29.94in /  1013.8hPa SSW 0.1mph /  0.2km/h 2mph /  3.2km/h 95% 0.00in /  0mm 79 W/m2
08:34 66.7 °F /  19.3 °C 65.3 °F /  18.5 °C 29.94in /  1013.8hPa Calm   2mph /  3.2km/h 95% 0.00in /  0mm 84 W/m2
08:39 66.8 °F /  19.3 °C 65.3 °F /  18.5 °C 29.94in /  1013.8hPa Calm     95% 0.00in /  0mm 114 W/m2
08:44 66.9 °F /  19.4 °C 65.4 °F /  18.6 °C 29.94in /  1013.8hPa Calm     95% 0.00in /  0mm 120 W/m2
08:49 67 °F /  19.4 °C 65.5 °F /  18.6 °C 29.94in /  1013.8hPa Calm   1mph /  1.6km/h 95% 0.00in /  0mm 120 W/m2
08:54 67.1 °F /  19.5 °C 65.5 °F /  18.6 °C 29.94in /  1013.8hPa Calm   1mph /  1.6km/h 94.6% 0.00in /  0mm 132 W/m2
08:59 67.2 °F /  19.6 °C 65.4 °F /  18.6 °C 29.94in /  1013.8hPa Calm   1mph /  1.6km/h 94% 0.00in /  0mm 153 W/m2
09:04 67.3 °F /  19.6 °C 65.6 °F /  18.7 °C 29.93in /  1013.4hPa Calm   1mph /  1.6km/h 94% 0.00in /  0mm 253 W/m2
09:09 67.5 °F /  19.7 °C 65.9 °F /  18.8 °C 29.93in /  1013.4hPa Calm   1mph /  1.6km/h 94.5% 0.00in /  0mm 255 W/m2
09:14 67.7 °F /  19.8 °C 66 °F /  18.9 °C 29.93in /  1013.4hPa Calm   1mph /  1.6km/h 94% 0.00in /  0mm 232 W/m2
09:19 68 °F /  20 °C 66.2 °F /  19 °C 29.93in /  1013.4hPa Calm   1mph /  1.6km/h 94% 0.00in /  0mm 207 W/m2
09:24 68.2 °F /  20.1 °C 66.4 °F /  19.1 °C 29.92in /  1013.1hPa Calm   1mph /  1.6km/h 94% 0.00in /  0mm 227 W/m2
09:29 68.5 °F /  20.3 °C 66.4 °F /  19.1 °C 29.92in /  1013.1hPa Calm   1mph /  1.6km/h 93.1% 0.00in /  0mm 227 W/m2
09:34 68.8 °F /  20.4 °C 66.7 °F /  19.3 °C 29.92in /  1013.1hPa Calm   1mph /  1.6km/h 93.2% 0.00in /  0mm 211 W/m2
09:39 69 °F /  20.6 °C 66.9 °F /  19.4 °C 29.92in /  1013.1hPa Calm   1mph /  1.6km/h 93% 0.00in /  0mm 211 W/m2
09:44 69.3 °F /  20.7 °C 66.9 °F /  19.4 °C 29.92in /  1013.1hPa SSW 0.4mph /  0.6km/h 3mph /  4.8km/h 92.1% 0.00in /  0mm 272 W/m2
09:49 69.4 °F /  20.8 °C 66.9 °F /  19.4 °C 29.92in /  1013.1hPa SSW 0.1mph /  0.2km/h 3mph /  4.8km/h 91.6% 0.00in /  0mm 281 W/m2
09:54 69.7 °F /  20.9 °C 66.9 °F /  19.4 °C 29.92in /  1013.1hPa Calm   3mph /  4.8km/h 91% 0.00in /  0mm 258 W/m2
09:59 69.9 °F /  21.1 °C 67.1 °F /  19.5 °C 29.92in /  1013.1hPa Calm   3mph /  4.8km/h 90.8% 0.00in /  0mm 338 W/m2
10:04 70.1 °F /  21.2 °C 67 °F /  19.4 °C 29.92in /  1013.1hPa Calm   3mph /  4.8km/h 90% 0.00in /  0mm 216 W/m2
10:09 70.2 °F /  21.2 °C 67 °F /  19.4 °C 29.92in /  1013.1hPa SSW 0.1mph /  0.2km/h 2mph /  3.2km/h 89.7% 0.00in /  0mm 185 W/m2
10:14 70.3 °F /  21.3 °C 67 °F /  19.4 °C 29.92in /  1013.1hPa SSW 0.3mph /  0.5km/h 3mph /  4.8km/h 89.2% 0.00in /  0mm 195 W/m2
10:19 70.3 °F /  21.3 °C 67 °F /  19.4 °C 29.91in /  1012.8hPa Calm   3mph /  4.8km/h 89% 0.00in /  0mm 313 W/m2
10:24 70.5 °F /  21.4 °C 67.2 °F /  19.6 °C 29.91in /  1012.8hPa SSW 0.3mph /  0.5km/h 3mph /  4.8km/h 89.2% 0.00in /  0mm 316 W/m2
10:29 70.7 °F /  21.5 °C 67.3 °F /  19.6 °C 29.91in /  1012.8hPa SSW 0.3mph /  0.5km/h 5mph /  8km/h 89% 0.00in /  0mm 290 W/m2
10:34 71 °F /  21.7 °C 67.6 °F /  19.8 °C 29.91in /  1012.8hPa SSW 0.3mph /  0.5km/h 5mph /  8km/h 89% 0.00in /  0mm 367 W/m2
10:39 71.3 °F /  21.8 °C 67.7 °F /  19.8 °C 29.91in /  1012.8hPa SSW 0.2mph /  0.3km/h 4mph /  6.4km/h 88.3% 0.00in /  0mm 357 W/m2
10:44 71.6 °F /  22 °C 67.7 °F /  19.8 °C 29.91in /  1012.8hPa SSW 0.2mph /  0.3km/h 4mph /  6.4km/h 87.3% 0.00in /  0mm 294 W/m2
10:49 71.9 °F /  22.2 °C 67.8 °F /  19.9 °C 29.91in /  1012.8hPa SSW 0.4mph /  0.6km/h 5mph /  8km/h 87% 0.00in /  0mm 301 W/m2
10:54 72.1 °F /  22.3 °C 67.7 °F /  19.8 °C 29.91in /  1012.8hPa SW 0.5mph /  0.8km/h 6mph /  9.7km/h 86.1% 0.00in /  0mm 432 W/m2
10:59 72.2 °F /  22.3 °C 67.6 °F /  19.8 °C 29.91in /  1012.8hPa Calm   6mph /  9.7km/h 85.3% 0.00in /  0mm 366 W/m2
11:04 72.4 °F /  22.4 °C 67.9 °F /  19.9 °C 29.91in /  1012.8hPa SW 0.3mph /  0.5km/h 6mph /  9.7km/h 85.5% 0.00in /  0mm 457 W/m2
11:09 72.6 °F /  22.6 °C 67.9 °F /  19.9 °C 29.90in /  1012.4hPa SW 0.2mph /  0.3km/h 4mph /  6.4km/h 85% 0.00in /  0mm 355 W/m2
11:14 72.8 °F /  22.7 °C 67.8 °F /  19.9 °C 29.90in /  1012.4hPa SW 1mph /  1.6km/h 4mph /  6.4km/h 84.2% 0.00in /  0mm 350 W/m2
11:19 73 °F /  22.8 °C 67.9 °F /  19.9 °C 29.90in /  1012.4hPa SW 0.8mph /  1.3km/h 7mph /  11.3km/h 84% 0.00in /  0mm 381 W/m2
11:24 73.2 °F /  22.9 °C 67.8 °F /  19.9 °C 29.90in /  1012.4hPa SW 0.5mph /  0.8km/h 7mph /  11.3km/h 83% 0.00in /  0mm 343 W/m2
11:29 73.4 °F /  23 °C 67.9 °F /  19.9 °C 29.90in /  1012.4hPa SW 0.7mph /  1.1km/h 7mph /  11.3km/h 83% 0.00in /  0mm 308 W/m2
11:34 73.5 °F /  23.1 °C 68 °F /  20 °C 29.90in /  1012.4hPa SW 0.8mph /  1.3km/h 7mph /  11.3km/h 83% 0.00in /  0mm 371 W/m2
11:39 73.5 °F /  23.1 °C 67.9 °F /  19.9 °C 29.90in /  1012.4hPa SW 1.1mph /  1.8km/h 5mph /  8km/h 82.7% 0.00in /  0mm 306 W/m2
11:44 73.6 °F /  23.1 °C 67.8 °F /  19.9 °C 29.89in /  1012.1hPa SW 0.8mph /  1.3km/h 5mph /  8km/h 82.2% 0.00in /  0mm 380 W/m2
11:49 73.4 °F /  23 °C 67.6 °F /  19.8 °C 29.89in /  1012.1hPa South 0.5mph /  0.8km/h 5mph /  8km/h 82% 0.00in /  0mm 388 W/m2
11:54 73.5 °F /  23.1 °C 67.7 °F /  19.8 °C 29.89in /  1012.1hPa South 0.4mph /  0.6km/h 5mph /  8km/h 82.1% 0.00in /  0mm 380 W/m2
11:59 73.8 °F /  23.2 °C 67.9 °F /  19.9 °C 29.89in /  1012.1hPa SSW 0.3mph /  0.5km/h 5mph /  8km/h 82.1% 0.00in /  0mm 336 W/m2
12:00 73.9 °F /  23.3 °C 68.1 °F /  20.1 °C 29.89in /  1012.1hPa Calm   5mph /  8km/h 82% 0.00in /  0mm 297 W/m2
12:09 74.3 °F /  23.5 °C 68.1 °F /  20.1 °C 29.89in /  1012.1hPa SW 0.5mph /  0.8km/h 3mph /  4.8km/h 81.2% 0.00in /  0mm 366 W/m2
12:14 74.5 °F /  23.6 °C 68.3 °F /  20.2 °C 29.89in /  1012.1hPa SSW 0.6mph /  1km/h 4mph /  6.4km/h 81% 0.00in /  0mm 316 W/m2
12:19 74.5 °F /  23.6 °C 67.9 °F /  19.9 °C 29.88in /  1011.7hPa SSW 0.2mph /  0.3km/h 4mph /  6.4km/h 80% 0.00in /  0mm 271 W/m2
12:24 74.4 °F /  23.6 °C 67.9 °F /  19.9 °C 29.88in /  1011.7hPa SSW 0.2mph /  0.3km/h 4mph /  6.4km/h 80% 0.00in /  0mm 434 W/m2
12:29 74.6 °F /  23.7 °C 68.2 °F /  20.1 °C 29.88in /  1011.7hPa South 1.1mph /  1.8km/h 4mph /  6.4km/h 80.5% 0.00in /  0mm 454 W/m2
12:34 74.8 °F /  23.8 °C 68.5 °F /  20.3 °C 29.88in /  1011.7hPa SSE 0.2mph /  0.3km/h 4mph /  6.4km/h 80.8% 0.00in /  0mm 450 W/m2
12:39 75.2 °F /  24 °C 68.5 °F /  20.3 °C 29.88in /  1011.7hPa SSW 1mph /  1.6km/h 5mph /  8km/h 79.7% 0.00in /  0mm 489 W/m2
12:44 75.5 °F /  24.2 °C 69 °F /  20.6 °C 29.88in /  1011.7hPa West 0.3mph /  0.5km/h 5mph /  8km/h 80.3% 0.00in /  0mm 636 W/m2
12:49 76 °F /  24.4 °C 69.4 °F /  20.8 °C 29.88in /  1011.7hPa WSW 0.3mph /  0.5km/h 5mph /  8km/h 80% 0.00in /  0mm 636 W/m2
12:54 76.5 °F /  24.7 °C 69 °F /  20.6 °C 29.87in /  1011.4hPa SW 0.6mph /  1km/h 5mph /  8km/h 77.7% 0.00in /  0mm 613 W/m2
12:59 76.6 °F /  24.8 °C 68.9 °F /  20.5 °C 29.87in /  1011.4hPa WSW 0.3mph /  0.5km/h 5mph /  8km/h 77% 0.00in /  0mm 967 W/m2
13:04 77 °F /  25 °C 69.5 °F /  20.8 °C 29.87in /  1011.4hPa WSW 0.8mph /  1.3km/h 5mph /  8km/h 77.6% 0.00in /  0mm 918 W/m2
13:09 77.6 °F /  25.3 °C 69.3 °F /  20.7 °C 29.87in /  1011.4hPa SW 0.8mph /  1.3km/h 6mph /  9.7km/h 75.8% 0.00in /  0mm 817 W/m2
13:14 78 °F /  25.6 °C 69.7 °F /  20.9 °C 29.87in /  1011.4hPa West 0.7mph /  1.1km/h 6mph /  9.7km/h 75.7% 0.00in /  0mm 1069 W/m2
13:19 78.5 °F /  25.8 °C 69.8 °F /  21 °C 29.86in /  1011.1hPa SSW 1.1mph /  1.8km/h 6mph /  9.7km/h 74.7% 0.00in /  0mm 1106 W/m2
13:24 79 °F /  26.1 °C 69.4 °F /  20.8 °C 29.86in /  1011.1hPa SSW 0.5mph /  0.8km/h 6mph /  9.7km/h 72.3% 0.00in /  0mm 1039 W/m2
13:29 79.2 °F /  26.2 °C 69.2 °F /  20.7 °C 29.86in /  1011.1hPa SSW 0.4mph /  0.6km/h 6mph /  9.7km/h 71.5% 0.00in /  0mm 1020 W/m2
13:34 79 °F /  26.1 °C 68.9 °F /  20.5 °C 29.86in /  1011.1hPa South 1.2mph /  1.9km/h 6mph /  9.7km/h 71.3% 0.00in /  0mm 1020 W/m2
13:39 78.4 °F /  25.8 °C 68.4 °F /  20.2 °C 29.86in /  1011.1hPa South 1.2mph /  1.9km/h 5mph /  8km/h 71.5% 0.00in /  0mm 330 W/m2
13:44 77.9 °F /  25.5 °C 68.6 °F /  20.3 °C 29.86in /  1011.1hPa South 0.4mph /  0.6km/h 5mph /  8km/h 73.1% 0.00in /  0mm 350 W/m2
13:49 77.6 °F /  25.3 °C 68.8 °F /  20.4 °C 29.86in /  1011.1hPa Calm   5mph /  8km/h 74.3% 0.00in /  0mm 355 W/m2
13:54 77.6 °F /  25.3 °C 68.8 °F /  20.4 °C 29.86in /  1011.1hPa South 0.9mph /  1.4km/h 5mph /  8km/h 74.3% 0.00in /  0mm 338 W/m2
13:59 77.6 °F /  25.3 °C 68.7 °F /  20.4 °C 29.86in /  1011.1hPa SSW 0.6mph /  1km/h 5mph /  8km/h 74.2% 0.00in /  0mm 415 W/m2
14:04 77.7 °F /  25.4 °C 68.7 °F /  20.4 °C 29.85in /  1010.7hPa SSW 1.2mph /  1.9km/h 10mph /  16.1km/h 74% 0.00in /  0mm 473 W/m2
14:09 77.8 °F /  25.4 °C 68.8 °F /  20.4 °C 29.85in /  1010.7hPa SE 0.9mph /  1.4km/h 10mph /  16.1km/h 74% 0.00in /  0mm 902 W/m2
14:14 77.8 °F /  25.4 °C 68.8 °F /  20.4 °C 29.85in /  1010.7hPa South 1.1mph /  1.8km/h 10mph /  16.1km/h 73.8% 0.00in /  0mm 889 W/m2
14:19 78.2 °F /  25.7 °C 69.3 °F /  20.7 °C 29.84in /  1010.4hPa SW 2.1mph /  3.4km/h 10mph /  16.1km/h 74.2% 0.00in /  0mm 905 W/m2
14:24 78.7 °F /  25.9 °C 69.6 °F /  20.9 °C 29.84in /  1010.4hPa WSW 0.7mph /  1.1km/h 10mph /  16.1km/h 73.5% 0.00in /  0mm 867 W/m2
14:29 79.1 °F /  26.2 °C 69.1 °F /  20.6 °C 29.84in /  1010.4hPa SSW 1.4mph /  2.3km/h 10mph /  16.1km/h 71.4% 0.00in /  0mm 816 W/m2
14:34 79.2 °F /  26.2 °C 69 °F /  20.6 °C 29.84in /  1010.4hPa SW 1.4mph /  2.3km/h 10mph /  16.1km/h 71% 0.00in /  0mm 768 W/m2
14:39 79.3 °F /  26.3 °C 68.9 °F /  20.5 °C 29.84in /  1010.4hPa South 1.3mph /  2.1km/h 6mph /  9.7km/h 70.7% 0.00in /  0mm 942 W/m2
14:44 79.1 °F /  26.2 °C 68.9 °F /  20.5 °C 29.83in /  1010hPa South 1.1mph /  1.8km/h 6mph /  9.7km/h 71% 0.00in /  0mm 670 W/m2
14:49 78.9 °F /  26.1 °C 68.8 °F /  20.4 °C 29.83in /  1010hPa South 1.2mph /  1.9km/h 6mph /  9.7km/h 71.4% 0.00in /  0mm 682 W/m2
14:54 78.9 °F /  26.1 °C 69.2 °F /  20.7 °C 29.83in /  1010hPa SSE 1.1mph /  1.8km/h 6mph /  9.7km/h 72.1% 0.00in /  0mm 650 W/m2
14:59 78.9 °F /  26.1 °C 68.8 °F /  20.4 °C 29.83in /  1010hPa South 2mph /  3.2km/h 8mph /  12.9km/h 71.4% 0.00in /  0mm 650 W/m2
15:04 78.6 °F /  25.9 °C 69 °F /  20.6 °C 29.83in /  1010hPa South 0.7mph /  1.1km/h 8mph /  12.9km/h 72.3% 0.00in /  0mm 503 W/m2
15:09 78.5 °F /  25.8 °C 68.8 °F /  20.4 °C 29.83in /  1010hPa SSW 1mph /  1.6km/h 5mph /  8km/h 72.2% 0.00in /  0mm 374 W/m2
15:14 78.3 °F /  25.7 °C 68.5 °F /  20.3 °C 29.83in /  1010hPa South 1.5mph /  2.4km/h 5mph /  8km/h 72% 0.00in /  0mm 297 W/m2
15:19 78 °F /  25.6 °C 68.4 °F /  20.2 °C 29.83in /  1010hPa South 1.4mph /  2.3km/h 6mph /  9.7km/h 72.5% 0.00in /  0mm 330 W/m2
15:24 77.7 °F /  25.4 °C 68.2 °F /  20.1 °C 29.83in /  1010hPa South 1.9mph /  3.1km/h 7mph /  11.3km/h 72.6% 0.00in /  0mm 248 W/m2
15:29 77.5 °F /  25.3 °C 68.2 °F /  20.1 °C 29.83in /  1010hPa South 0.6mph /  1km/h 7mph /  11.3km/h 73% 0.00in /  0mm 770 W/m2
15:34 77.7 °F /  25.4 °C 68.8 °F /  20.4 °C 29.82in /  1009.7hPa South 0.9mph /  1.4km/h 7mph /  11.3km/h 74% 0.00in /  0mm 756 W/m2
15:39 78.1 °F /  25.6 °C 69 °F /  20.6 °C 29.82in /  1009.7hPa South 1.5mph /  2.4km/h 5mph /  8km/h 73.7% 0.00in /  0mm 745 W/m2
15:44 78.3 °F /  25.7 °C 68.9 °F /  20.5 °C 29.82in /  1009.7hPa South 1.8mph /  2.9km/h 6mph /  9.7km/h 72.8% 0.00in /  0mm 807 W/m2
15:49 78.4 °F /  25.8 °C 68.9 °F /  20.5 °C 29.82in /  1009.7hPa SSE 1.6mph /  2.6km/h 6mph /  9.7km/h 72.7% 0.00in /  0mm 759 W/m2
15:54 78.2 °F /  25.7 °C 68.7 °F /  20.4 °C 29.82in /  1009.7hPa South 1.5mph /  2.4km/h 6mph /  9.7km/h 72.6% 0.00in /  0mm 445 W/m2
15:59 77.9 °F /  25.5 °C 68.6 °F /  20.3 °C 29.82in /  1009.7hPa South 0.8mph /  1.3km/h 6mph /  9.7km/h 73% 0.00in /  0mm 278 W/m2
16:00 77.7 °F /  25.4 °C 68.8 °F /  20.4 °C 29.82in /  1009.7hPa Calm   6mph /  9.7km/h 74% 0.00in /  0mm 302 W/m2
16:09 77.5 °F /  25.3 °C 68.7 °F /  20.4 °C 29.82in /  1009.7hPa South 1mph /  1.6km/h 5mph /  8km/h 74.3% 0.00in /  0mm 360 W/m2
16:14 77.4 °F /  25.2 °C 68.9 °F /  20.5 °C 29.82in /  1009.7hPa South 0.6mph /  1km/h 5mph /  8km/h 75% 0.00in /  0mm 385 W/m2
16:19 77.3 °F /  25.2 °C 68.9 °F /  20.5 °C 29.82in /  1009.7hPa South 0.9mph /  1.4km/h 5mph /  8km/h 75.3% 0.00in /  0mm 218 W/m2
16:24 77.1 °F /  25.1 °C 68.6 °F /  20.3 °C 29.81in /  1009.4hPa South 1.7mph /  2.7km/h 6mph /  9.7km/h 75% 0.00in /  0mm 239 W/m2
16:29 76.9 °F /  24.9 °C 68.7 °F /  20.4 °C 29.81in /  1009.4hPa South 1.4mph /  2.3km/h 6mph /  9.7km/h 75.8% 0.00in /  0mm 264 W/m2
16:34 76.7 °F /  24.8 °C 68.7 °F /  20.4 °C 29.81in /  1009.4hPa South 0.7mph /  1.1km/h 6mph /  9.7km/h 76.3% 0.00in /  0mm 267 W/m2
16:39 76.5 °F /  24.7 °C 68.7 °F /  20.4 °C 29.81in /  1009.4hPa SSW 1.3mph /  2.1km/h 6mph /  9.7km/h 76.8% 0.00in /  0mm 227 W/m2
16:44 76.3 °F /  24.6 °C 68.7 °F /  20.4 °C 29.81in /  1009.4hPa South 0.7mph /  1.1km/h 6mph /  9.7km/h 77.2% 0.00in /  0mm 260 W/m2
16:49 76.3 °F /  24.6 °C 69 °F /  20.6 °C 29.81in /  1009.4hPa SSW 0.3mph /  0.5km/h 6mph /  9.7km/h 78.2% 0.00in /  0mm 260 W/m2
16:54 76.2 °F /  24.6 °C 68.8 °F /  20.4 °C 29.81in /  1009.4hPa South 1.9mph /  3.1km/h 6mph /  9.7km/h 78% 0.00in /  0mm 236 W/m2
16:59 75.9 °F /  24.4 °C 68.5 °F /  20.3 °C 29.81in /  1009.4hPa South 1.8mph /  2.9km/h 7mph /  11.3km/h 78% 0.00in /  0mm 241 W/m2
17:04 75.6 °F /  24.2 °C 68.6 °F /  20.3 °C 29.81in /  1009.4hPa South 1.5mph /  2.4km/h 7mph /  11.3km/h 78.8% 0.00in /  0mm 239 W/m2
17:09 75.3 °F /  24.1 °C 68.4 °F /  20.2 °C 29.81in /  1009.4hPa South 2mph /  3.2km/h 6mph /  9.7km/h 79.1% 0.00in /  0mm 176 W/m2
17:14 75 °F /  23.9 °C 68.5 °F /  20.3 °C 29.81in /  1009.4hPa South 1mph /  1.6km/h 6mph /  9.7km/h 80% 0.00in /  0mm 183 W/m2
17:19 74.9 °F /  23.8 °C 68.7 °F /  20.4 °C 29.81in /  1009.4hPa South 0.6mph /  1km/h 6mph /  9.7km/h 81% 0.00in /  0mm 163 W/m2
17:24 74.9 °F /  23.8 °C 68.7 °F /  20.4 °C 29.81in /  1009.4hPa SSW 0.2mph /  0.3km/h 6mph /  9.7km/h 81.2% 0.00in /  0mm 128 W/m2
17:29 74.9 °F /  23.8 °C 68.7 °F /  20.4 °C 29.80in /  1009hPa SSW 0.5mph /  0.8km/h 6mph /  9.7km/h 81% 0.00in /  0mm 98 W/m2
17:34 74.8 °F /  23.8 °C 68.5 °F /  20.3 °C 29.80in /  1009hPa SSW 1.4mph /  2.3km/h 6mph /  9.7km/h 81% 0.00in /  0mm 95 W/m2
17:39 74.5 °F /  23.6 °C 68.3 °F /  20.2 °C 29.80in /  1009hPa SSE 1.7mph /  2.7km/h 9mph /  14.5km/h 81% 0.00in /  0mm 93 W/m2
17:44 74.2 °F /  23.4 °C 68.2 °F /  20.1 °C 29.79in /  1008.7hPa South 1.1mph /  1.8km/h 9mph /  14.5km/h 81.4% 0.00in /  0mm 93 W/m2
18:00 73.5 °F /  23.1 °C 68.4 °F /  20.2 °C 29.79in /  1008.7hPa South 1mph /  1.6km/h 11mph /  17.7km/h 84% 0.00in /  0mm 76 W/m2
18:30 72.7 °F /  22.6 °C 68.6 °F /  20.3 °C 29.79in /  1008.7hPa South 1mph /  1.6km/h 9mph /  14.5km/h 87% 0.00in /  0mm 38 W/m2
19:00 71.5 °F /  21.9 °C 68.4 °F /  20.2 °C 29.78in /  1008.4hPa South 1mph /  1.6km/h 9mph /  14.5km/h 90% 0.00in /  0mm 17 W/m2
19:30 71.2 °F /  21.8 °C 68.4 °F /  20.2 °C 29.75in /  1007.3hPa South 1mph /  1.6km/h 9mph /  14.5km/h 91% 0.00in /  0mm 28 W/m2
20:04 70.4 °F /  21.3 °C 67.3 °F /  19.6 °C 29.74in /  1007hPa SSW 0.6mph /  1km/h 2mph /  3.2km/h 90% 0.00in /  0mm 0 W/m2
20:09 70.3 °F /  21.3 °C 67.4 °F /  19.7 °C 29.75in /  1007.3hPa SSW 0.6mph /  1km/h 3mph /  4.8km/h 90.5% 0.00in /  0mm 0 W/m2
20:14 70.3 °F /  21.3 °C 67.5 °F /  19.7 °C 29.75in /  1007.3hPa SSW 0.6mph /  1km/h 3mph /  4.8km/h 91% 0.00in /  0mm 0 W/m2
20:19 70.2 °F /  21.2 °C 67.4 °F /  19.7 °C 29.75in /  1007.3hPa SSW 0.8mph /  1.3km/h 3mph /  4.8km/h 91% 0.00in /  0mm 0 W/m2
20:24 70.1 °F /  21.2 °C 67.3 °F /  19.6 °C 29.76in /  1007.7hPa SSW 1mph /  1.6km/h 5mph /  8km/h 91% 0.00in /  0mm 0 W/m2
20:29 69.9 °F /  21.1 °C 67.1 °F /  19.5 °C 29.76in /  1007.7hPa South 2.3mph /  3.7km/h 6mph /  9.7km/h 90.7% 0.00in /  0mm 0 W/m2
20:34 69.8 °F /  21 °C 66.7 °F /  19.3 °C 29.76in /  1007.7hPa South 2.7mph /  4.3km/h 9mph /  14.5km/h 90% 0.00in /  0mm 0 W/m2
20:39 69.6 °F /  20.9 °C 66.5 °F /  19.2 °C 29.76in /  1007.7hPa SSW 1.7mph /  2.7km/h 9mph /  14.5km/h 90% 0.00in /  0mm 0 W/m2
20:44 69.4 °F /  20.8 °C 66.4 °F /  19.1 °C 29.76in /  1007.7hPa SSW 2mph /  3.2km/h 9mph /  14.5km/h 90% 0.00in /  0mm 0 W/m2
20:49 69.3 °F /  20.7 °C 65.9 °F /  18.8 °C 29.76in /  1007.7hPa South 2.3mph /  3.7km/h 9mph /  14.5km/h 89% 0.00in /  0mm 0 W/m2
20:54 69.1 °F /  20.6 °C 65.7 °F /  18.7 °C 29.75in /  1007.3hPa South 2.2mph /  3.5km/h 9mph /  14.5km/h 89% 0.00in /  0mm 0 W/m2
20:59 69 °F /  20.6 °C 65.6 °F /  18.7 °C 29.75in /  1007.3hPa South 1.7mph /  2.7km/h 9mph /  14.5km/h 89% 0.00in /  0mm 0 W/m2
21:04 68.9 °F /  20.5 °C 65.5 °F /  18.6 °C 29.76in /  1007.7hPa South 1.4mph /  2.3km/h 9mph /  14.5km/h 89% 0.00in /  0mm 0 W/m2
21:09 68.8 °F /  20.4 °C 65.4 °F /  18.6 °C 29.77in /  1008hPa South 1.9mph /  3.1km/h 7mph /  11.3km/h 89% 0.00in /  0mm 0 W/m2
21:14 68.7 °F /  20.4 °C 65.4 °F /  18.6 °C 29.77in /  1008hPa SSW 1.6mph /  2.6km/h 7mph /  11.3km/h 89% 0.00in /  0mm 0 W/m2
21:19 68.7 °F /  20.4 °C 65.3 °F /  18.5 °C 29.77in /  1008hPa SSW 1.1mph /  1.8km/h 7mph /  11.3km/h 89% 0.00in /  0mm 0 W/m2
21:24 68.6 °F /  20.3 °C 65.2 °F /  18.4 °C 29.77in /  1008hPa SSW 1.1mph /  1.8km/h 7mph /  11.3km/h 89% 0.00in /  0mm 0 W/m2
21:29 68.6 °F /  20.3 °C 65.2 °F /  18.4 °C 29.78in /  1008.4hPa SSW 1.8mph /  2.9km/h 10mph /  16.1km/h 89% 0.00in /  0mm 0 W/m2
21:34 68.4 °F /  20.2 °C 65.1 °F /  18.4 °C 29.78in /  1008.4hPa SSW 0.6mph /  1km/h 10mph /  16.1km/h 89% 0.00in /  0mm 0 W/m2
21:39 68.4 °F /  20.2 °C 65 °F /  18.3 °C 29.78in /  1008.4hPa SW 0.6mph /  1km/h 5mph /  8km/h 89% 0.00in /  0mm 0 W/m2
21:44 68.3 °F /  20.2 °C 64.9 °F /  18.3 °C 29.78in /  1008.4hPa SSW 0.6mph /  1km/h 5mph /  8km/h 89% 0.00in /  0mm 0 W/m2
21:49 68.1 °F /  20.1 °C 64.6 °F /  18.1 °C 29.78in /  1008.4hPa SW 0.4mph /  0.6km/h 5mph /  8km/h 88.6% 0.00in /  0mm 0 W/m2
21:54 67.9 °F /  19.9 °C 64.3 °F /  17.9 °C 29.78in /  1008.4hPa SSW 0.7mph /  1.1km/h 5mph /  8km/h 88% 0.00in /  0mm 0 W/m2
21:59 67.8 °F /  19.9 °C 64.2 °F /  17.9 °C 29.78in /  1008.4hPa SSW 0.3mph /  0.5km/h 5mph /  8km/h 88% 0.00in /  0mm 0 W/m2
22:04 67.7 °F /  19.8 °C 64 °F /  17.8 °C 29.78in /  1008.4hPa SSW 0.3mph /  0.5km/h 5mph /  8km/h 88% 0.00in /  0mm 0 W/m2
22:09 67.6 °F /  19.8 °C 63.9 °F /  17.7 °C 29.78in /  1008.4hPa SSW 0.3mph /  0.5km/h 2mph /  3.2km/h 88% 0.00in /  0mm 0 W/m2
22:14 67.5 °F /  19.7 °C 64 °F /  17.8 °C 29.78in /  1008.4hPa South 0.8mph /  1.3km/h 4mph /  6.4km/h 88.4% 0.00in /  0mm 0 W/m2
22:19 67.4 °F /  19.7 °C 64.1 °F /  17.8 °C 29.77in /  1008hPa South 0.2mph /  0.3km/h 4mph /  6.4km/h 89% 0.00in /  0mm 0 W/m2
22:24 67.4 °F /  19.7 °C 64.1 °F /  17.8 °C 29.77in /  1008hPa SSW 0.4mph /  0.6km/h 4mph /  6.4km/h 89% 0.00in /  0mm 0 W/m2
22:29 67.3 °F /  19.6 °C 63.9 °F /  17.7 °C 29.77in /  1008hPa SSW 0.4mph /  0.6km/h 4mph /  6.4km/h 88.8% 0.00in /  0mm 0 W/m2
22:34 67.3 °F /  19.6 °C 63.8 °F /  17.7 °C 29.77in /  1008hPa South 0.7mph /  1.1km/h 6mph /  9.7km/h 88.5% 0.00in /  0mm 0 W/m2
22:39 67.2 °F /  19.6 °C 63.5 °F /  17.5 °C 29.77in /  1008hPa South 0.5mph /  0.8km/h 6mph /  9.7km/h 88% 0.00in /  0mm 0 W/m2
22:44 67.2 °F /  19.6 °C 63.5 °F /  17.5 °C 29.77in /  1008hPa South 0.5mph /  0.8km/h 6mph /  9.7km/h 88% 0.00in /  0mm 0 W/m2
22:49 67.1 °F /  19.5 °C 63.4 °F /  17.4 °C 29.77in /  1008hPa South 0.4mph /  0.6km/h 6mph /  9.7km/h 88% 0.00in /  0mm 0 W/m2
22:54 67.1 °F /  19.5 °C 63.7 °F /  17.6 °C 29.77in /  1008hPa South 0.6mph /  1km/h 6mph /  9.7km/h 88.9% 0.00in /  0mm 0 W/m2
22:59 67 °F /  19.4 °C 63.7 °F /  17.6 °C 29.77in /  1008hPa South 0.2mph /  0.3km/h 6mph /  9.7km/h 89% 0.00in /  0mm 0 W/m2
23:04 67 °F /  19.4 °C 63.6 °F /  17.6 °C 29.77in /  1008hPa South 0.1mph /  0.2km/h 6mph /  9.7km/h 89% 0.00in /  0mm 0 W/m2
23:09 66.9 °F /  19.4 °C 63.6 °F /  17.6 °C 29.77in /  1008hPa South 0.2mph /  0.3km/h 2mph /  3.2km/h 89% 0.00in /  0mm 0 W/m2
23:14 66.9 °F /  19.4 °C 63.6 °F /  17.6 °C 29.77in /  1008hPa South 0.2mph /  0.3km/h 2mph /  3.2km/h 89% 0.00in /  0mm 0 W/m2
23:19 66.8 °F /  19.3 °C 63.5 °F /  17.5 °C 29.77in /  1008hPa South 0.2mph /  0.3km/h 2mph /  3.2km/h 89% 0.00in /  0mm 0 W/m2
23:24 66.8 °F /  19.3 °C 63.5 °F /  17.5 °C 29.77in /  1008hPa Calm   2mph /  3.2km/h 89% 0.00in /  0mm 0 W/m2
23:29 66.8 °F /  19.3 °C 63.4 °F /  17.4 °C 29.77in /  1008hPa Calm   2mph /  3.2km/h 89% 0.00in /  0mm 0 W/m2
23:34 66.7 °F /  19.3 °C 63.4 °F /  17.4 °C 29.77in /  1008hPa SSW 0.1mph /  0.2km/h 2mph /  3.2km/h 89% 0.00in /  0mm 0 W/m2
23:39 66.7 °F /  19.3 °C 63.3 °F /  17.4 °C 29.77in /  1008hPa Calm   2mph /  3.2km/h 89% 0.00in /  0mm 0 W/m2
23:44 66.6 °F /  19.2 °C 63.3 °F /  17.4 °C 29.77in /  1008hPa Calm   2mph /  3.2km/h 89% 0.00in /  0mm 0 W/m2
23:49 66.5 °F /  19.2 °C 63.2 °F /  17.3 °C 29.77in /  1008hPa Calm   2mph /  3.2km/h 89% 0.00in /  0mm 0 W/m2
23:54 66.5 °F /  19.2 °C 63.2 °F /  17.3 °C 29.77in /  1008hPa Calm   2mph /  3.2km/h 89% 0.00in /  0mm 0 W/m2
23:58 66.4 °F /  19.1 °C 63.1 °F /  17.3 °C 29.77in /  1008hPa SSW 0.3mph /  0.5km/h 2mph /  3.2km/h 89% 0.00in /  0mm 0 W/m2
Hartford County Weather
Compliments of Weather Underground - 2 mb